Time;durP1;ratioP1;P1;durP2;ratioP2;P2;SDS_P1;SDS_P2;PMS_P1;PMS_P2;Temp;Humidity;BMP_temperature;BMP_pressure;BME280_temperature;BME280_humidity;BME280_pressure;Samples;Min_cycle;Max_cycle;Signal;HPM_P1;HPM_P2
2022/05/28 00:00:59;;;;;;;4.63;4.13;;;19.70;77.10;;;;;;5053805;28;20190;-63
2022/05/28 00:03:27;;;;;;;5.20;3.57;;;19.70;77.30;;;;;;5054112;28;20181;-63
2022/05/28 00:05:53;;;;;;;7.83;4.17;;;19.70;77.40;;;;;;5070477;28;20242;-63
2022/05/28 00:08:19;;;;;;;7.80;3.40;;;19.60;77.70;;;;;;5037649;28;20190;-63
2022/05/28 00:10:47;;;;;;;4.00;3.40;;;19.50;78.00;;;;;;5072894;28;20178;-63
2022/05/28 00:13:13;;;;;;;4.60;3.53;;;19.60;78.10;;;;;;5054224;28;20220;-63
2022/05/28 00:15:41;;;;;;;4.17;3.47;;;19.60;78.20;;;;;;5071209;28;20207;-63
2022/05/28 00:18:08;;;;;;;3.10;2.90;;;19.60;78.40;;;;;;5054344;28;20210;-63
2022/05/28 00:20:34;;;;;;;5.77;3.80;;;19.50;77.80;;;;;;5061509;28;20278;-63
2022/05/28 00:23:00;;;;;;;5.07;3.43;;;19.50;77.70;;;;;;5051652;28;20175;-63
2022/05/28 00:25:26;;;;;;;4.93;3.00;;;19.50;77.90;;;;;;5057542;28;20225;-63
2022/05/28 00:27:53;;;;;;;3.23;2.93;;;19.50;78.00;;;;;;5052404;28;20194;-63
2022/05/28 00:30:20;;;;;;;3.00;2.60;;;19.50;78.10;;;;;;5064004;28;20275;-63
2022/05/28 00:32:45;;;;;;;3.97;3.00;;;19.50;77.90;;;;;;5071575;28;20181;-63
2022/05/28 00:35:15;;;;;;;3.97;3.17;;;19.50;78.00;;;;;;5055135;28;20171;-63
2022/05/28 00:37:42;;;;;;;5.20;3.73;;;19.50;78.00;;;;;;5072111;28;20189;-63
2022/05/28 00:40:11;;;;;;;4.70;3.13;;;19.50;77.90;;;;;;5055121;28;20175;-63
2022/05/28 00:42:37;;;;;;;6.37;3.27;;;19.50;78.20;;;;;;5069182;28;20248;-63
2022/05/28 00:45:04;;;;;;;4.57;3.43;;;19.40;77.80;;;;;;5060333;28;20205;-64
2022/05/28 00:47:30;;;;;;;3.73;2.97;;;19.50;77.90;;;;;;5069491;28;20193;-64
2022/05/28 00:49:56;;;;;;;4.20;3.03;;;19.40;78.10;;;;;;5067087;28;20283;-64
2022/05/28 00:52:25;;;;;;;3.03;2.67;;;19.40;78.00;;;;;;5057273;28;20332;-63
2022/05/28 00:54:52;;;;;;;4.17;2.80;;;19.40;78.00;;;;;;5068023;28;20205;-63
2022/05/28 00:57:20;;;;;;;4.20;3.30;;;19.40;78.20;;;;;;5057029;28;20261;-63
2022/05/28 00:59:46;;;;;;;4.30;2.80;;;19.30;78.40;;;;;;5061651;28;20201;-63
2022/05/28 01:02:32;;;;;;;3.47;2.90;;;19.30;78.30;;;;;;5059179;28;20195;-63
2022/05/28 01:05:09;;;;;;;5.23;2.60;;;19.30;78.30;;;;;;5072093;28;20364;-63
2022/05/28 01:08:05;;;;;;;5.53;2.80;;;19.30;78.40;;;;;;5066403;28;20261;-63
2022/05/28 01:10:54;;;;;;;5.50;3.37;;;19.20;78.50;;;;;;5081701;28;20214;-63
2022/05/28 01:13:43;;;;;;;4.43;3.00;;;19.10;78.70;;;;;;5071541;28;20217;-63
2022/05/28 01:16:09;;;;;;;4.23;2.97;;;19.10;78.60;;;;;;5074626;28;20243;-63
2022/05/28 01:18:47;;;;;;;4.87;2.87;;;19.10;78.60;;;;;;5074778;28;20186;-62
2022/05/28 01:21:34;;;;;;;3.33;2.97;;;19.10;78.40;;;;;;5060126;28;20251;-63
2022/05/28 01:24:16;;;;;;;4.80;3.13;;;19.10;78.70;;;;;;5073104;28;20206;-63
2022/05/28 01:26:52;;;;;;;4.03;3.27;;;19.00;78.40;;;;;;5063880;28;20187;-64
2022/05/28 01:29:20;;;;;;;3.43;2.87;;;18.90;77.70;;;;;;5070752;28;20247;-63
2022/05/28 01:31:47;;;;;;;5.17;2.97;;;18.90;77.40;;;;;;5052439;28;20187;-63
2022/05/28 01:34:15;;;;;;;6.07;2.97;;;18.90;77.50;;;;;;5067807;28;20214;-63
2022/05/28 01:36:41;;;;;;;4.47;2.80;;;18.90;77.70;;;;;;5071367;28;20182;-63
2022/05/28 01:39:07;;;;;;;4.73;2.67;;;18.80;77.60;;;;;;5064835;28;20190;-63
2022/05/28 01:41:35;;;;;;;2.77;2.57;;;18.80;77.30;;;;;;5072127;28;20235;-63
2022/05/28 01:44:02;;;;;;;4.70;3.30;;;18.80;77.30;;;;;;5056227;28;20221;-63
2022/05/28 01:46:29;;;;;;;5.90;3.00;;;18.70;76.80;;;;;;5068795;28;20194;-63
2022/05/28 01:48:56;;;;;;;2.97;2.77;;;18.70;76.90;;;;;;5056336;28;20195;-63
2022/05/28 01:51:29;;;;;;;3.10;2.90;;;18.60;77.60;;;;;;5070900;28;20195;-63
2022/05/28 01:54:08;;;;;;;3.63;2.90;;;18.60;77.60;;;;;;5065136;28;20193;-63
2022/05/28 01:56:42;;;;;;;3.03;2.80;;;18.50;77.40;;;;;;5084052;28;20198;-63
2022/05/28 01:59:08;;;;;;;3.57;2.90;;;18.50;76.90;;;;;;5061987;28;20186;-63
2022/05/28 02:01:34;;;;;;;3.77;3.17;;;18.40;77.00;;;;;;5058564;28;20216;-63
2022/05/28 02:04:04;;;;;;;6.60;3.50;;;18.40;77.10;;;;;;5042967;28;20209;-63
2022/05/28 02:06:31;;;;;;;6.20;3.40;;;18.30;77.30;;;;;;5079607;28;20191;-64
2022/05/28 02:08:56;;;;;;;6.13;3.40;;;18.30;77.30;;;;;;5056506;28;20205;-63
2022/05/28 02:11:57;;;;;;;4.03;3.30;;;18.30;77.40;;;;;;5051784;28;20263;-64
2022/05/28 02:14:50;;;;;;;4.47;3.03;;;18.30;77.50;;;;;;5066261;28;20185;-63
2022/05/28 02:17:44;;;;;;;3.77;2.90;;;18.20;77.60;;;;;;5065806;28;20181;-64
2022/05/28 02:20:35;;;;;;;3.43;3.13;;;18.20;77.50;;;;;;5057150;28;20187;-63
2022/05/28 02:23:16;;;;;;;4.20;3.23;;;18.20;77.90;;;;;;5066566;28;20186;-64
2022/05/28 02:25:48;;;;;;;5.30;3.07;;;18.10;77.80;;;;;;5070721;28;20213;-63
2022/05/28 02:28:15;;;;;;;3.17;2.87;;;18.10;77.70;;;;;;5067341;28;20189;-63
2022/05/28 02:31:01;;;;;;;4.53;2.90;;;18.10;77.90;;;;;;5053801;28;20179;-64
2022/05/28 02:33:29;;;;;;;3.90;2.80;;;18.00;77.90;;;;;;5058366;28;20186;-63
2022/05/28 02:35:55;;;;;;;4.87;2.87;;;18.00;78.00;;;;;;5045688;28;20193;-64
2022/05/28 02:38:20;;;;;;;3.90;2.50;;;18.00;78.30;;;;;;5052807;28;20187;-64
2022/05/28 02:40:46;;;;;;;4.33;2.80;;;18.00;78.30;;;;;;5049595;28;20189;-64
2022/05/28 02:43:12;;;;;;;3.10;2.70;;;18.00;78.40;;;;;;5052914;28;20234;-62
2022/05/28 02:45:39;;;;;;;4.20;2.73;;;17.90;78.10;;;;;;5047601;28;20270;-63
2022/05/28 02:48:05;;;;;;;4.20;3.00;;;17.90;78.00;;;;;;5055291;28;20223;-63
2022/05/28 02:50:31;;;;;;;7.40;2.97;;;17.90;78.10;;;;;;5080617;28;20224;-63
2022/05/28 02:52:56;;;;;;;3.93;2.50;;;17.80;78.30;;;;;;5048620;28;20190;-63
2022/05/28 02:55:23;;;;;;;3.53;3.23;;;17.80;78.30;;;;;;5056162;28;20190;-63
2022/05/28 02:57:49;;;;;;;4.57;3.33;;;17.80;78.60;;;;;;5048317;28;20186;-64
2022/05/28 03:00:15;;;;;;;8.73;3.00;;;17.80;78.60;;;;;;5034722;28;20289;-64
2022/05/28 03:02:42;;;;;;;3.83;2.70;;;17.70;78.60;;;;;;5043693;28;20249;-64
2022/05/28 03:05:08;;;;;;;3.53;2.53;;;17.70;78.90;;;;;;5041414;28;20233;-64
2022/05/28 03:07:34;;;;;;;4.30;2.60;;;17.60;78.90;;;;;;5072943;28;20178;-62
2022/05/28 03:10:00;;;;;;;3.20;2.90;;;17.60;78.90;;;;;;5070714;28;20220;-63
2022/05/28 03:12:25;;;;;;;4.67;3.30;;;17.60;78.70;;;;;;5042385;28;20341;-64
2022/05/28 03:14:51;;;;;;;4.87;3.00;;;17.50;78.70;;;;;;5037983;28;20193;-64
2022/05/28 03:17:17;;;;;;;3.40;2.90;;;17.50;78.40;;;;;;5053896;28;20205;-64
2022/05/28 03:19:42;;;;;;;4.90;2.97;;;17.50;78.60;;;;;;5032847;28;20205;-64
2022/05/28 03:22:08;;;;;;;5.07;3.13;;;17.50;78.70;;;;;;5035647;28;20186;-64
2022/05/28 03:24:33;;;;;;;3.83;2.63;;;17.40;78.10;;;;;;5037189;28;20256;-63
2022/05/28 03:26:59;;;;;;;2.63;2.37;;;17.40;78.40;;;;;;5068662;28;20189;-64
2022/05/28 03:29:26;;;;;;;5.63;2.70;;;17.50;78.70;;;;;;5048785;28;20182;-63
2022/05/28 03:31:51;;;;;;;3.53;2.67;;;17.40;78.80;;;;;;5066588;28;20175;-63
2022/05/28 03:34:17;;;;;;;3.77;2.67;;;17.50;78.90;;;;;;5063204;28;20197;-63
2022/05/28 03:36:43;;;;;;;4.70;3.13;;;17.50;78.90;;;;;;5039180;28;20202;-63
2022/05/28 03:39:09;;;;;;;6.27;2.50;;;17.50;78.30;;;;;;5058646;28;20185;-63
2022/05/28 03:41:34;;;;;;;3.20;2.63;;;17.30;77.50;;;;;;5070628;28;20324;-63
2022/05/28 03:44:00;;;;;;;4.00;2.50;;;17.40;77.60;;;;;;5056208;28;20201;-64
2022/05/28 03:46:31;;;;;;;3.53;3.07;;;17.40;77.40;;;;;;5051649;28;20190;-63
2022/05/28 03:49:27;;;;;;;3.20;2.63;;;17.40;77.80;;;;;;5066367;28;20204;-63
2022/05/28 03:51:54;;;;;;;2.50;2.30;;;17.30;77.70;;;;;;5060519;28;20298;-63
2022/05/28 03:54:19;;;;;;;3.90;2.80;;;17.30;78.10;;;;;;5059534;28;20202;-63
2022/05/28 03:56:47;;;;;;;4.13;2.60;;;17.30;78.30;;;;;;5047528;28;20269;-63
2022/05/28 03:59:12;;;;;;;2.63;2.43;;;17.20;78.50;;;;;;5052315;28;20197;-63
2022/05/28 04:01:39;;;;;;;3.00;2.63;;;17.20;78.20;;;;;;5054198;28;20186;-63
2022/05/28 04:04:05;;;;;;;4.83;2.27;;;17.20;78.20;;;;;;5051023;28;20224;-63
2022/05/28 04:06:32;;;;;;;2.50;2.30;;;17.20;78.40;;;;;;5048533;28;20183;-63
2022/05/28 04:08:58;;;;;;;2.87;2.63;;;17.10;78.50;;;;;;5055067;28;20169;-63
2022/05/28 04:11:23;;;;;;;5.10;2.60;;;17.20;78.10;;;;;;5047315;28;20201;-63
2022/05/28 04:13:50;;;;;;;3.77;2.50;;;17.20;77.40;;;;;;5054530;28;20178;-63
2022/05/28 04:16:16;;;;;;;4.10;2.53;;;17.20;77.50;;;;;;5055040;28;20265;-63
2022/05/28 04:18:43;;;;;;;3.27;2.33;;;17.20;77.10;;;;;;5055917;28;20195;-64
2022/05/28 04:21:09;;;;;;;3.70;2.40;;;17.20;77.20;;;;;;5054392;28;20194;-63
2022/05/28 04:23:35;;;;;;;4.67;2.60;;;17.00;77.40;;;;;;5070371;28;20219;-64
2022/05/28 04:26:00;;;;;;;3.97;2.80;;;17.00;77.50;;;;;;5054631;28;20198;-64
2022/05/28 04:28:27;;;;;;;4.00;2.50;;;17.00;77.90;;;;;;5070374;28;20228;-63
2022/05/28 04:30:53;;;;;;;2.43;1.90;;;17.00;78.00;;;;;;5053045;28;20228;-64
2022/05/28 04:33:19;;;;;;;2.50;2.30;;;16.90;78.20;;;;;;5067147;28;20213;-63
2022/05/28 04:35:44;;;;;;;5.13;2.50;;;17.00;78.30;;;;;;5055636;28;20194;-63
2022/05/28 04:38:10;;;;;;;3.97;2.73;;;16.90;78.30;;;;;;5038600;28;20226;-63
2022/05/28 04:40:36;;;;;;;2.87;2.57;;;16.80;77.80;;;;;;5044746;28;20199;-63
2022/05/28 04:43:01;;;;;;;3.07;2.50;;;16.80;78.20;;;;;;5070014;28;20241;-63
2022/05/28 04:45:27;;;;;;;3.93;2.20;;;16.80;78.30;;;;;;5051314;28;20226;-63
2022/05/28 04:47:52;;;;;;;3.37;3.07;;;16.90;78.50;;;;;;5037230;28;20197;-63
2022/05/28 04:50:18;;;;;;;3.00;2.23;;;16.80;78.20;;;;;;5067958;28;20191;-63
2022/05/28 04:52:44;;;;;;;3.07;2.47;;;16.80;78.20;;;;;;5074743;28;20182;-62
2022/05/28 04:55:11;;;;;;;3.57;2.60;;;16.80;78.30;;;;;;5053302;28;20182;-64
2022/05/28 04:57:37;;;;;;;4.00;2.77;;;16.80;78.10;;;;;;5067783;28;20190;-63
2022/05/28 05:00:07;;;;;;;3.00;2.73;;;16.80;78.10;;;;;;5068879;28;20192;-63
2022/05/28 05:02:33;;;;;;;2.73;2.40;;;16.80;78.20;;;;;;5068344;28;20998;-63
2022/05/28 05:04:58;;;;;;;3.30;3.00;;;16.80;78.60;;;;;;5060637;28;20217;-64
2022/05/28 05:07:25;;;;;;;2.87;2.63;;;16.80;78.20;;;;;;5054580;28;20186;-63
2022/05/28 05:09:51;;;;;;;2.90;2.70;;;16.70;78.30;;;;;;5054534;28;20182;-64
2022/05/28 05:12:17;;;;;;;4.80;2.97;;;16.70;78.60;;;;;;5068421;28;20182;-63
2022/05/28 05:14:43;;;;;;;3.13;2.60;;;16.70;79.00;;;;;;5074634;28;20243;-64
2022/05/28 05:17:09;;;;;;;3.30;3.00;;;16.60;78.30;;;;;;5058217;28;20195;-64
2022/05/28 05:19:34;;;;;;;3.27;2.97;;;16.70;78.70;;;;;;5058915;28;20198;-64
2022/05/28 05:22:00;;;;;;;3.20;2.83;;;16.60;78.80;;;;;;5060445;28;20240;-65
2022/05/28 05:24:26;;;;;;;2.73;2.53;;;16.50;79.30;;;;;;5059760;28;20209;-64
2022/05/28 05:26:52;;;;;;;3.50;2.77;;;16.50;79.50;;;;;;5073042;28;20189;-63
2022/05/28 05:29:18;;;;;;;6.03;3.10;;;16.50;79.90;;;;;;5070924;28;20178;-63
2022/05/28 05:31:44;;;;;;;8.37;3.87;;;16.60;79.90;;;;;;5070611;28;20278;-63
2022/05/28 05:34:10;;;;;;;4.33;3.17;;;16.60;80.10;;;;;;5070486;28;20282;-63
2022/05/28 05:36:36;;;;;;;3.50;3.20;;;16.60;80.00;;;;;;5083292;28;20248;-64
2022/05/28 05:39:02;;;;;;;4.67;3.23;;;16.60;80.80;;;;;;5068088;28;20185;-64
2022/05/28 05:41:28;;;;;;;2.83;2.60;;;16.60;80.70;;;;;;5060432;28;20251;-64
2022/05/28 05:43:53;;;;;;;3.33;3.03;;;16.70;81.10;;;;;;5054568;28;20194;-64
2022/05/28 05:46:19;;;;;;;3.87;3.40;;;16.60;80.50;;;;;;5056770;28;20190;-64
2022/05/28 05:48:45;;;;;;;2.70;2.50;;;16.70;80.90;;;;;;5053651;28;20225;-64
2022/05/28 05:51:14;;;;;;;3.33;3.00;;;16.70;80.90;;;;;;5062336;28;20193;-65
2022/05/28 05:53:41;;;;;;;2.73;2.53;;;16.70;80.50;;;;;;5067846;28;20186;-65
2022/05/28 05:56:07;;;;;;;3.73;2.90;;;16.60;80.30;;;;;;5053595;28;20201;-65
2022/05/28 05:58:36;;;;;;;4.27;2.83;;;16.60;80.00;;;;;;5056915;28;20189;-66
2022/05/28 06:01:04;;;;;;;5.00;3.43;;;16.70;80.00;;;;;;5051831;28;20262;-64
2022/05/28 06:03:30;;;;;;;3.60;2.90;;;16.70;80.30;;;;;;5053135;28;20233;-64
2022/05/28 06:06:01;;;;;;;3.57;3.27;;;16.70;79.50;;;;;;5064002;28;20201;-64
2022/05/28 06:08:28;;;;;;;3.40;3.10;;;16.60;79.40;;;;;;5058825;28;20183;-63
2022/05/28 06:10:54;;;;;;;3.73;2.97;;;16.70;79.80;;;;;;5069779;28;20194;-64
2022/05/28 06:13:19;;;;;;;3.27;2.97;;;16.80;80.00;;;;;;5041776;28;20231;-64
2022/05/28 06:15:45;;;;;;;3.60;3.30;;;16.80;79.90;;;;;;5066583;28;20185;-64
2022/05/28 06:18:15;;;;;;;4.13;3.83;;;16.80;79.70;;;;;;5069476;28;20206;-64
2022/05/28 06:20:41;;;;;;;3.77;3.00;;;16.80;79.60;;;;;;5070522;28;20198;-64
2022/05/28 06:23:07;;;;;;;4.93;3.47;;;16.90;79.40;;;;;;5058357;28;20227;-64
2022/05/28 06:25:32;;;;;;;4.30;2.80;;;16.80;78.50;;;;;;5046822;28;20217;-64
2022/05/28 06:27:58;;;;;;;3.20;2.90;;;16.80;78.50;;;;;;5040597;28;20205;-63
2022/05/28 06:30:24;;;;;;;2.63;2.40;;;16.80;78.50;;;;;;5051867;28;20185;-63
2022/05/28 06:32:50;;;;;;;3.93;2.60;;;16.80;78.30;;;;;;5055611;28;20194;-64
2022/05/28 06:35:16;;;;;;;3.10;2.40;;;16.80;78.20;;;;;;5064846;28;20187;-64
2022/05/28 06:37:41;;;;;;;3.90;2.43;;;16.90;78.00;;;;;;5072015;28;20292;-64
2022/05/28 06:40:08;;;;;;;3.87;2.40;;;16.90;77.60;;;;;;5055098;28;20198;-64
2022/05/28 06:42:34;;;;;;;2.90;2.20;;;17.00;77.60;;;;;;5046374;28;20361;-63
2022/05/28 06:45:00;;;;;;;2.87;2.57;;;17.10;77.10;;;;;;5037410;28;20287;-64
2022/05/28 06:47:26;;;;;;;2.13;1.80;;;17.10;76.30;;;;;;5036331;28;20256;-64
2022/05/28 06:52:36;;;;;;;2.47;2.20;;;17.00;76.00;;;;;;5060054;28;20263;-65
2022/05/28 06:55:04;;;;;;;2.83;1.90;;;17.00;75.40;;;;;;5053162;28;20228;-64
2022/05/28 06:57:29;;;;;;;2.50;2.30;;;17.00;75.60;;;;;;5047905;28;20189;-64
2022/05/28 06:59:57;;;;;;;2.60;2.40;;;17.00;75.60;;;;;;5045366;28;20213;-63
2022/05/28 07:02:23;;;;;;;3.53;2.50;;;17.00;75.60;;;;;;5046063;28;20276;-63
2022/05/28 07:04:48;;;;;;;4.17;2.33;;;17.00;75.00;;;;;;5062448;28;20259;-63
2022/05/28 07:07:14;;;;;;;3.37;2.47;;;17.00;74.90;;;;;;5056017;28;20197;-64
2022/05/28 07:09:40;;;;;;;2.70;2.50;;;17.00;73.70;;;;;;5065125;28;20282;-64
2022/05/28 07:12:06;;;;;;;3.90;2.20;;;17.00;73.50;;;;;;5045504;28;20259;-64
2022/05/28 07:14:32;;;;;;;3.03;2.73;;;16.90;74.20;;;;;;5040521;28;20191;-64
2022/05/28 07:16:57;;;;;;;4.30;2.70;;;16.80;74.40;;;;;;5036428;28;20201;-64
2022/05/28 07:19:23;;;;;;;3.43;2.57;;;16.80;75.10;;;;;;5060849;28;20226;-63
2022/05/28 07:21:48;;;;;;;3.90;2.60;;;16.80;74.80;;;;;;5035552;28;20285;-63
2022/05/28 07:24:14;;;;;;;4.43;2.43;;;16.80;75.00;;;;;;5053822;28;20222;-64
2022/05/28 07:26:40;;;;;;;2.63;2.00;;;16.70;74.10;;;;;;5042559;28;20194;-64
2022/05/28 07:29:08;;;;;;;2.30;2.10;;;16.80;73.70;;;;;;5044688;28;20194;-64
2022/05/28 07:31:34;;;;;;;2.17;1.47;;;16.70;73.00;;;;;;5045561;28;20293;-64
2022/05/28 07:34:00;;;;;;;1.70;1.60;;;16.60;71.60;;;;;;5034727;28;20205;-64
2022/05/28 07:36:26;;;;;;;2.03;1.83;;;16.60;71.40;;;;;;5049171;28;20194;-61
2022/05/28 07:38:53;;;;;;;3.37;2.47;;;16.60;71.20;;;;;;5051684;28;20212;-61
2022/05/28 07:41:22;;;;;;;2.43;1.67;;;16.60;72.50;;;;;;5055534;28;20197;-60
2022/05/28 07:43:49;;;;;;;2.13;1.93;;;16.60;72.30;;;;;;5072699;28;20182;-61
2022/05/28 07:46:21;;;;;;;3.70;2.07;;;16.50;72.40;;;;;;5055177;28;20209;-61
2022/05/28 07:48:47;;;;;;;2.57;1.87;;;16.40;72.50;;;;;;5070628;28;20281;-62
2022/05/28 07:51:13;;;;;;;2.27;1.50;;;16.30;72.70;;;;;;5068125;28;20186;-62
2022/05/28 07:53:39;;;;;;;2.23;2.00;;;16.30;73.00;;;;;;5081068;28;20193;-63
2022/05/28 07:56:05;;;;;;;2.10;1.70;;;16.30;73.30;;;;;;5070177;28;20203;-65
2022/05/28 07:58:31;;;;;;;2.57;1.80;;;16.30;73.10;;;;;;5064081;28;20229;-64
2022/05/28 08:00:58;;;;;;;2.40;1.53;;;16.40;72.00;;;;;;5059621;28;20218;-64
2022/05/28 08:03:24;;;;;;;3.07;1.70;;;16.40;71.80;;;;;;5052828;28;20198;-64
2022/05/28 08:05:51;;;;;;;2.20;2.00;;;16.30;71.90;;;;;;5062406;28;20276;-64
2022/05/28 08:08:19;;;;;;;2.03;1.83;;;16.30;71.80;;;;;;5041275;28;20214;-63
2022/05/28 08:10:44;;;;;;;1.80;1.60;;;16.10;71.20;;;;;;5074222;28;20204;-62
2022/05/28 08:13:14;;;;;;;3.07;1.80;;;16.10;72.00;;;;;;5055631;28;20186;-63
2022/05/28 08:15:41;;;;;;;3.83;2.43;;;16.20;71.90;;;;;;5061589;28;20200;-64
2022/05/28 08:18:08;;;;;;;2.60;2.07;;;16.20;72.20;;;;;;5066494;28;20186;-63
2022/05/28 08:23:19;;;;;;;3.37;2.33;;;16.10;73.30;;;;;;5060848;28;20204;-63
2022/05/28 08:25:46;;;;;;;3.07;2.40;;;16.00;75.00;;;;;;5064744;28;20213;-63
2022/05/28 08:28:13;;;;;;;2.80;2.33;;;15.90;74.40;;;;;;5068297;28;20231;-63
2022/05/28 08:30:40;;;;;;;3.03;2.17;;;15.80;74.40;;;;;;5052530;28;20197;-62
2022/05/28 08:33:07;;;;;;;2.27;2.10;;;15.70;75.60;;;;;;5061286;28;20273;-62
2022/05/28 08:35:33;;;;;;;4.73;3.07;;;15.70;76.00;;;;;;5069602;28;20197;-63
2022/05/28 08:38:12;;;;;;;5.20;2.80;;;15.30;75.20;;;;;;5058688;28;20214;-63
2022/05/28 08:41:04;;;;;;;3.17;2.57;;;15.20;76.30;;;;;;5041364;28;20440;-63
2022/05/28 08:43:33;;;;;;;2.90;2.70;;;15.20;77.40;;;;;;5055139;28;20241;-63
2022/05/28 08:45:59;;;;;;;2.97;2.77;;;15.20;78.40;;;;;;5061184;28;20202;-63
2022/05/28 08:48:39;;;;;;;3.87;3.17;;;15.10;78.00;;;;;;5039727;28;20202;-64
2022/05/28 08:51:09;;;;;;;3.43;2.70;;;15.00;78.60;;;;;;5064363;28;20225;-63
2022/05/28 08:53:50;;;;;;;2.90;2.70;;;14.90;78.20;;;;;;5069258;28;20197;-64
2022/05/28 08:56:21;;;;;;;3.17;2.87;;;14.90;79.10;;;;;;5054764;28;20240;-63
2022/05/28 08:58:51;;;;;;;3.97;3.07;;;14.90;79.20;;;;;;5052169;28;20190;-66
2022/05/28 09:01:21;;;;;;;5.23;3.00;;;14.90;78.50;;;;;;5051748;28;20186;-65
2022/05/28 09:03:59;;;;;;;4.23;3.00;;;14.90;78.90;;;;;;5067279;28;20189;-63
2022/05/28 09:06:32;;;;;;;3.00;2.80;;;14.90;78.30;;;;;;5061154;28;20198;-63
2022/05/28 09:08:58;;;;;;;4.03;3.27;;;14.80;78.80;;;;;;5070891;28;20174;-64
2022/05/28 09:11:45;;;;;;;3.17;2.83;;;14.80;78.00;;;;;;5051534;28;20190;-64
2022/05/28 09:14:41;;;;;;;4.20;3.00;;;14.80;79.00;;;;;;5066297;28;20210;-63
2022/05/28 09:17:15;;;;;;;3.50;3.17;;;14.90;79.30;;;;;;5049394;28;20212;-64
2022/05/28 09:19:44;;;;;;;2.70;2.50;;;14.90;79.10;;;;;;5063400;28;20194;-63
2022/05/28 09:22:10;;;;;;;4.03;2.80;;;14.90;79.20;;;;;;5072870;28;20293;-63
2022/05/28 09:24:36;;;;;;;4.47;3.07;;;14.80;78.70;;;;;;5058955;28;20282;-63
2022/05/28 09:27:17;;;;;;;5.03;3.57;;;14.90;78.70;;;;;;5059807;28;20194;-63
2022/05/28 09:30:01;;;;;;;3.43;2.97;;;14.90;79.10;;;;;;5067360;28;20181;-63
2022/05/28 09:33:12;;;;;;;4.17;3.57;;;14.90;79.30;;;;;;5078775;28;20178;-63
2022/05/28 09:36:05;;;;;;;4.47;3.63;;;14.90;79.20;;;;;;5065825;28;20801;-63
2022/05/28 09:38:53;;;;;;;5.20;3.70;;;14.90;79.20;;;;;;5071088;28;20262;-63
2022/05/28 09:41:19;;;;;;;3.57;3.27;;;14.90;79.80;;;;;;5071779;28;20194;-62
2022/05/28 09:43:49;;;;;;;4.43;3.43;;;14.90;79.90;;;;;;5075379;28;20204;-63
2022/05/28 09:46:18;;;;;;;4.50;3.47;;;14.90;80.00;;;;;;5065469;28;20203;-63
2022/05/28 09:48:46;;;;;;;4.40;3.43;;;14.80;79.50;;;;;;5064830;28;20208;-63
2022/05/28 09:51:24;;;;;;;3.33;2.90;;;14.80;78.90;;;;;;5059143;28;20189;-63
2022/05/28 09:54:17;;;;;;;6.30;3.23;;;14.80;79.20;;;;;;5074681;28;20182;-63
2022/05/28 09:56:55;;;;;;;3.03;2.83;;;14.80;78.00;;;;;;5075886;28;20181;-62
2022/05/28 09:59:26;;;;;;;4.73;3.17;;;14.70;78.40;;;;;;5072791;28;20273;-62
2022/05/28 10:01:59;;;;;;;4.13;3.10;;;14.50;78.20;;;;;;5075988;28;20307;-62
2022/05/28 10:04:29;;;;;;;3.03;2.67;;;14.60;79.00;;;;;;5061001;28;20229;-62
2022/05/28 10:06:57;;;;;;;3.60;2.60;;;14.60;78.90;;;;;;5062787;28;20190;-62
2022/05/28 10:09:29;;;;;;;3.13;2.83;;;14.60;79.00;;;;;;5057647;28;20183;-62
2022/05/28 10:11:58;;;;;;;5.97;3.17;;;14.60;79.30;;;;;;5071740;28;20269;-62
2022/05/28 10:14:28;;;;;;;3.30;2.70;;;14.70;78.70;;;;;;5066101;28;20182;-63
2022/05/28 10:16:56;;;;;;;5.87;3.20;;;14.70;78.60;;;;;;5074770;28;20189;-63
2022/05/28 10:19:27;;;;;;;3.07;2.80;;;14.70;78.80;;;;;;5061232;28;20193;-63
2022/05/28 10:21:56;;;;;;;3.97;2.97;;;14.60;79.50;;;;;;5079056;28;20193;-63
2022/05/28 10:24:24;;;;;;;4.57;3.70;;;14.60;79.60;;;;;;5072036;28;20220;-62
2022/05/28 10:26:56;;;;;;;5.97;3.90;;;14.60;81.00;;;;;;5056591;28;20181;-63
2022/05/28 10:29:38;;;;;;;3.47;3.17;;;14.70;81.60;;;;;;5060972;28;20225;-63
2022/05/28 10:32:25;;;;;;;4.03;3.40;;;14.60;81.60;;;;;;5059884;28;20190;-62
2022/05/28 10:35:20;;;;;;;3.10;2.80;;;14.70;82.00;;;;;;5069005;28;20189;-63
2022/05/28 10:37:46;;;;;;;2.77;2.57;;;14.70;82.30;;;;;;5072186;28;20196;-63
2022/05/28 10:40:23;;;;;;;3.97;3.07;;;14.70;81.90;;;;;;5058649;28;20190;-64
2022/05/28 10:42:51;;;;;;;3.43;3.07;;;14.70;82.20;;;;;;5074282;28;20237;-63
2022/05/28 10:45:19;;;;;;;5.23;3.40;;;14.70;82.90;;;;;;5056715;28;20512;-62
2022/05/28 10:47:51;;;;;;;3.17;2.90;;;14.70;81.40;;;;;;5066055;28;20198;-64
2022/05/28 10:50:48;;;;;;;3.20;2.90;;;14.70;81.40;;;;;;5071258;28;20179;-64
2022/05/28 10:53:22;;;;;;;3.53;3.23;;;14.70;82.30;;;;;;5070478;28;20181;-63
2022/05/28 10:56:11;;;;;;;6.13;3.60;;;14.70;83.40;;;;;;5064464;28;20217;-63
2022/05/28 10:58:46;;;;;;;4.53;2.93;;;14.70;83.80;;;;;;5060213;28;20178;-64
2022/05/28 11:01:27;;;;;;;3.83;3.43;;;14.70;83.70;;;;;;5065091;28;20235;-63
2022/05/28 11:03:55;;;;;;;5.70;3.63;;;14.70;83.30;;;;;;5083763;28;20193;-61
2022/05/28 11:06:47;;;;;;;3.70;3.20;;;14.70;84.00;;;;;;5066332;28;20240;-62
2022/05/28 11:09:22;;;;;;;3.30;3.00;;;14.70;83.60;;;;;;5059211;28;20185;-62
2022/05/28 11:11:50;;;;;;;3.83;3.50;;;14.70;83.90;;;;;;5066729;28;20185;-61
2022/05/28 11:14:40;;;;;;;3.53;3.13;;;14.60;83.40;;;;;;5061491;28;20277;-62
2022/05/28 11:17:22;;;;;;;3.37;3.07;;;14.60;83.50;;;;;;5071373;28;20189;-62
2022/05/28 11:20:10;;;;;;;4.10;3.17;;;14.50;83.50;;;;;;5066102;28;20190;-62
2022/05/28 11:22:49;;;;;;;3.50;3.03;;;14.40;83.00;;;;;;5065609;28;20220;-65
2022/05/28 11:25:43;;;;;;;3.50;2.93;;;14.40;83.10;;;;;;5059153;28;20202;-63
2022/05/28 11:28:34;;;;;;;2.53;2.33;;;14.30;82.70;;;;;;5058749;28;20181;-63
2022/05/28 11:31:33;;;;;;;3.13;2.87;;;14.30;81.20;;;;;;5061773;28;20185;-63
2022/05/28 11:34:07;;;;;;;4.30;3.33;;;14.40;82.40;;;;;;5084501;28;20228;-64
2022/05/28 11:36:41;;;;;;;2.83;2.40;;;14.50;83.20;;;;;;5066586;28;20254;-64
2022/05/28 11:39:16;;;;;;;3.33;2.70;;;14.60;83.40;;;;;;5064072;28;20205;-63
2022/05/28 11:41:52;;;;;;;4.30;2.97;;;14.50;83.20;;;;;;5057229;28;20240;-63
2022/05/28 11:45:02;;;;;;;3.47;3.17;;;14.60;81.30;;;;;;5061109;28;20223;-63
2022/05/28 11:47:49;;;;;;;3.10;2.90;;;14.60;81.50;;;;;;4971373;28;20268;-62
2022/05/28 11:53:15;;;;;;;3.20;2.90;;;14.60;80.70;;;;;;5050515;28;20228;-62
2022/05/28 11:55:44;;;;;;;3.17;2.90;;;14.60;81.60;;;;;;5062997;28;20281;-62
2022/05/28 11:58:19;;;;;;;3.10;2.80;;;14.70;82.50;;;;;;5064979;28;20205;-62
2022/05/28 12:00:59;;;;;;;3.30;3.00;;;14.70;80.60;;;;;;5060839;28;20186;-62
2022/05/28 12:03:27;;;;;;;3.77;2.90;;;14.70;81.60;;;;;;5075970;28;20194;-63
2022/05/28 12:06:15;;;;;;;4.20;3.17;;;14.70;82.60;;;;;;5057759;28;20210;-61
2022/05/28 12:08:45;;;;;;;4.50;3.63;;;14.70;82.40;;;;;;5057628;28;20243;-61
2022/05/28 12:11:19;;;;;;;3.57;3.27;;;14.70;83.50;;;;;;5051583;28;20183;-62
2022/05/28 12:14:04;;;;;;;4.57;3.53;;;14.60;81.80;;;;;;5071275;28;20196;-62
2022/05/28 12:16:39;;;;;;;3.60;3.30;;;14.50;81.70;;;;;;5068612;28;20259;-61
2022/05/28 12:19:11;;;;;;;3.53;3.20;;;14.60;81.80;;;;;;5069471;28;20223;-61
2022/05/28 12:21:39;;;;;;;3.30;3.00;;;14.50;81.50;;;;;;5071149;28;20190;-61
2022/05/28 12:24:12;;;;;;;4.83;3.30;;;14.60;80.70;;;;;;5057558;28;20181;-61
2022/05/28 12:29:21;;;;;;;4.27;3.10;;;14.60;81.30;;;;;;5066230;28;20232;-61
2022/05/28 12:31:47;;;;;;;3.93;3.23;;;14.70;81.90;;;;;;5055155;28;20204;-61
2022/05/28 12:34:21;;;;;;;3.43;3.10;;;14.70;81.30;;;;;;5045749;28;20276;-61
2022/05/28 12:36:51;;;;;;;3.50;3.20;;;14.70;82.10;;;;;;5056193;28;20186;-62
2022/05/28 12:39:42;;;;;;;2.87;2.67;;;14.80;81.50;;;;;;5054112;28;20190;-62
2022/05/28 12:42:21;;;;;;;3.30;3.00;;;14.80;81.70;;;;;;5085725;28;20237;-62
2022/05/28 12:44:51;;;;;;;3.17;2.93;;;14.80;82.30;;;;;;5068899;28;20259;-60
2022/05/28 12:47:28;;;;;;;4.10;3.33;;;14.80;81.10;;;;;;5077977;28;20280;-60
2022/05/28 12:50:26;;;;;;;4.70;4.00;;;14.80;81.60;;;;;;5060276;28;20182;-60
2022/05/28 12:53:04;;;;;;;5.37;4.53;;;14.80;82.00;;;;;;5053284;28;20190;-60
2022/05/28 12:55:36;;;;;;;3.77;3.43;;;14.80;83.30;;;;;;5072688;28;20185;-62
2022/05/28 12:58:07;;;;;;;4.87;3.80;;;14.90;81.70;;;;;;5068099;28;20186;-62
2022/05/28 13:00:49;;;;;;;3.70;3.40;;;15.00;80.60;;;;;;5078160;28;20566;-62
2022/05/28 13:03:18;;;;;;;3.60;3.30;;;15.20;82.20;;;;;;5070298;28;20192;-62
2022/05/28 13:06:07;;;;;;;4.60;3.50;;;15.30;81.70;;;;;;5068992;28;20292;-62
2022/05/28 13:08:34;;;;;;;3.80;3.00;;;15.50;81.30;;;;;;5070030;28;20182;-62
2022/05/28 13:11:18;;;;;;;3.57;3.23;;;15.60;79.60;;;;;;5063711;28;20262;-62
2022/05/28 13:14:04;;;;;;;3.17;2.90;;;15.70;80.70;;;;;;5074125;28;20182;-62
2022/05/28 13:16:54;;;;;;;4.03;3.37;;;15.80;79.50;;;;;;5080570;28;20182;-62
2022/05/28 13:19:20;;;;;;;3.17;2.87;;;16.00;79.80;;;;;;5062389;28;20174;-62